Time;durP1;ratioP1;P1;durP2;ratioP2;P2;SDS_P1;SDS_P2;PMS_P1;PMS_P2;Temp;Humidity;BMP_temperature;BMP_pressure;BME280_temperature;BME280_humidity;BME280_pressure;Samples;Min_cycle;Max_cycle;Signal;HPM_P1;HPM_P2
2022/04/13 00:01:34;;;;;;;3.97;3.57;;;;;;;;;;5095529;28;20479;-69
2022/04/13 00:04:01;;;;;;;3.40;3.20;;;;;;;;;;5095488;28;20446;-70
2022/04/13 00:06:28;;;;;;;4.00;3.37;;;;;;;;;;5095108;28;20452;-70
2022/04/13 00:08:56;;;;;;;4.20;3.20;;;;;;;;;;5094950;28;20448;-70
2022/04/13 00:11:24;;;;;;;4.87;4.03;;;;;;;;;;5095390;28;20432;-69
2022/04/13 00:13:51;;;;;;;8.23;3.50;;;;;;;;;;5094962;28;20452;-70
2022/04/13 00:16:18;;;;;;;4.13;3.13;;;;;;;;;;5094814;28;20442;-69
2022/04/13 00:18:46;;;;;;;8.30;3.53;;;;;;;;;;5094991;28;20481;-70
2022/04/13 00:21:13;;;;;;;3.50;2.93;;;;;;;;;;5095422;28;20446;-70
2022/04/13 00:23:40;;;;;;;4.30;3.20;;;;;;;;;;5094560;28;20941;-71
2022/04/13 00:26:07;;;;;;;4.33;3.60;;;;;;;;;;5095004;28;20531;-70
2022/04/13 00:28:36;;;;;;;5.43;3.47;;;;;;;;;;5094634;28;20458;-70
2022/04/13 00:31:03;;;;;;;5.03;3.70;;;;;;;;;;5094873;28;20477;-69
2022/04/13 00:33:32;;;;;;;7.70;3.40;;;;;;;;;;5094912;28;20520;-71
2022/04/13 00:35:59;;;;;;;8.27;3.67;;;;;;;;;;5094495;28;20973;-70
2022/04/13 00:38:27;;;;;;;5.87;3.70;;;;;;;;;;5094813;28;20472;-70
2022/04/13 00:40:54;;;;;;;5.30;3.43;;;;;;;;;;5094653;28;20512;-70
2022/04/13 00:43:21;;;;;;;4.30;3.00;;;;;;;;;;5094618;28;20453;-70
2022/04/13 00:45:50;;;;;;;5.53;4.00;;;;;;;;;;5094525;28;20439;-69
2022/04/13 00:48:21;;;;;;;4.30;3.47;;;;;;;;;;5094761;28;20533;-71
2022/04/13 00:50:48;;;;;;;4.83;3.67;;;;;;;;;;5094269;28;20428;-69
2022/04/13 00:53:16;;;;;;;5.10;3.47;;;;;;;;;;5094298;28;20440;-69
2022/04/13 00:55:44;;;;;;;4.17;3.80;;;;;;;;;;5094657;28;20535;-70
2022/04/13 00:58:14;;;;;;;3.97;3.43;;;;;;;;;;5094291;28;20457;-69
2022/04/13 01:00:48;;;;;;;4.03;3.63;;;;;;;;;;5094802;28;20443;-70
2022/04/13 01:03:17;;;;;;;5.07;3.73;;;;;;;;;;5094043;28;20494;-70
2022/04/13 01:05:44;;;;;;;4.23;3.37;;;;;;;;;;5093858;28;20445;-69
2022/04/13 01:08:11;;;;;;;4.07;3.73;;;;;;;;;;5094244;28;20439;-69
2022/04/13 01:10:39;;;;;;;4.80;3.33;;;;;;;;;;5094440;28;20445;-69
2022/04/13 01:13:06;;;;;;;4.87;4.13;;;;;;;;;;5093726;28;20446;-69
2022/04/13 01:15:34;;;;;;;4.10;3.80;;;;;;;;;;5094071;28;20499;-69
2022/04/13 01:18:01;;;;;;;4.50;3.70;;;;;;;;;;5093826;28;20804;-69
2022/04/13 01:20:30;;;;;;;3.80;3.50;;;;;;;;;;5094050;28;20526;-69
2022/04/13 01:22:59;;;;;;;7.33;4.00;;;;;;;;;;5093959;28;21016;-69
2022/04/13 01:25:27;;;;;;;3.93;3.17;;;;;;;;;;5094057;28;20436;-69
2022/04/13 01:27:55;;;;;;;9.03;5.70;;;;;;;;;;5094266;28;20547;-69
2022/04/13 01:30:24;;;;;;;6.00;5.40;;;;;;;;;;5094013;28;20452;-69
2022/04/13 01:32:52;;;;;;;5.93;5.40;;;;;;;;;;5093514;28;20440;-69
2022/04/13 01:35:19;;;;;;;10.17;4.03;;;;;;;;;;5093561;28;20940;-70
2022/04/13 01:37:46;;;;;;;10.53;5.27;;;;;;;;;;5093902;28;20444;-69
2022/04/13 01:40:15;;;;;;;8.53;5.37;;;;;;;;;;5093633;28;20472;-70
2022/04/13 01:42:44;;;;;;;6.30;5.37;;;;;;;;;;5093296;28;20937;-69
2022/04/13 01:45:12;;;;;;;7.80;5.03;;;;;;;;;;5093442;28;20943;-69
2022/04/13 01:47:39;;;;;;;5.63;4.00;;;;;;;;;;5093962;28;20459;-69
2022/04/13 01:50:07;;;;;;;8.47;4.43;;;;;;;;;;5093756;28;20793;-69
2022/04/13 01:52:34;;;;;;;5.03;4.10;;;;;;;;;;5093601;28;20474;-69
2022/04/13 01:55:02;;;;;;;7.23;4.73;;;;;;;;;;5093872;28;20440;-69
2022/04/13 01:57:30;;;;;;;6.00;4.23;;;;;;;;;;5093466;28;20811;-69
2022/04/13 01:59:57;;;;;;;10.00;4.00;;;;;;;;;;5093462;28;20566;-69
2022/04/13 02:02:25;;;;;;;5.20;4.67;;;;;;;;;;5093550;28;20443;-69
2022/04/13 02:04:53;;;;;;;6.17;4.20;;;;;;;;;;5093140;28;21001;-69
2022/04/13 02:07:20;;;;;;;4.20;3.80;;;;;;;;;;5094106;28;20435;-69
2022/04/13 02:09:47;;;;;;;4.87;3.97;;;;;;;;;;5093434;28;20444;-70
2022/04/13 02:12:14;;;;;;;5.50;4.00;;;;;;;;;;5097966;28;20470;-69
2022/04/13 02:14:43;;;;;;;7.20;4.43;;;;;;;;;;5097108;28;20531;-70
2022/04/13 02:17:14;;;;;;;4.80;4.03;;;;;;;;;;5097689;28;20446;-69
2022/04/13 02:19:41;;;;;;;6.43;4.57;;;;;;;;;;5097320;28;20530;-70
2022/04/13 02:22:09;;;;;;;6.17;5.37;;;;;;;;;;5097115;28;20959;-69
2022/04/13 02:24:37;;;;;;;6.73;4.60;;;;;;;;;;5097447;28;20452;-70
2022/04/13 02:27:05;;;;;;;5.33;4.57;;;;;;;;;;5096926;28;20492;-69
2022/04/13 02:29:34;;;;;;;5.13;4.40;;;;;;;;;;5096834;28;20451;-69
2022/04/13 02:32:02;;;;;;;7.50;4.50;;;;;;;;;;5097561;28;20440;-70
2022/04/13 02:34:29;;;;;;;4.17;3.83;;;;;;;;;;5096871;28;20493;-69
2022/04/13 02:36:57;;;;;;;7.70;4.80;;;;;;;;;;5097136;28;20478;-69
2022/04/13 02:39:24;;;;;;;11.17;4.73;;;;;;;;;;5096560;28;20471;-69
2022/04/13 02:41:51;;;;;;;6.20;4.77;;;;;;;;;;5097060;28;20440;-69
2022/04/13 02:44:19;;;;;;;5.63;4.70;;;;;;;;;;5096591;28;20439;-69
2022/04/13 02:46:46;;;;;;;4.77;3.93;;;;;;;;;;5096727;28;20474;-69
2022/04/13 02:49:14;;;;;;;6.10;4.90;;;;;;;;;;5096537;28;20534;-69
2022/04/13 02:51:42;;;;;;;10.03;4.43;;;;;;;;;;5096522;28;20438;-69
2022/04/13 02:54:09;;;;;;;8.53;4.60;;;;;;;;;;5096764;28;20804;-69
2022/04/13 02:56:36;;;;;;;6.20;4.73;;;;;;;;;;5096745;28;20444;-69
2022/04/13 02:59:04;;;;;;;8.73;5.03;;;;;;;;;;5097060;28;20484;-69
2022/04/13 03:01:31;;;;;;;5.63;4.77;;;;;;;;;;5096670;28;20435;-69
2022/04/13 03:03:58;;;;;;;7.97;4.97;;;;;;;;;;5096520;28;20459;-69
2022/04/13 03:06:27;;;;;;;6.33;4.70;;;;;;;;;;5096538;28;20863;-69
2022/04/13 03:08:54;;;;;;;7.57;5.13;;;;;;;;;;5096106;28;20443;-69
2022/04/13 03:11:21;;;;;;;7.07;6.07;;;;;;;;;;5096482;28;20443;-69
2022/04/13 03:13:48;;;;;;;6.60;5.20;;;;;;;;;;5096340;28;20440;-69
2022/04/13 03:16:16;;;;;;;6.43;5.00;;;;;;;;;;5096357;28;20446;-69
2022/04/13 03:18:43;;;;;;;7.10;6.00;;;;;;;;;;5095836;28;20937;-69
2022/04/13 03:21:10;;;;;;;7.80;5.40;;;;;;;;;;5096711;28;20487;-69
2022/04/13 03:23:39;;;;;;;7.90;5.80;;;;;;;;;;5095590;28;20486;-69
2022/04/13 03:26:06;;;;;;;5.60;4.90;;;;;;;;;;5095706;28;20449;-69
2022/04/13 03:28:34;;;;;;;6.00;5.40;;;;;;;;;;5096416;28;20443;-70
2022/04/13 03:31:02;;;;;;;5.93;5.33;;;;;;;;;;5095931;28;20444;-69
2022/04/13 03:33:29;;;;;;;7.00;5.53;;;;;;;;;;5096015;28;20443;-69
2022/04/13 03:35:56;;;;;;;5.13;4.63;;;;;;;;;;5095780;28;20452;-69
2022/04/13 03:38:23;;;;;;;7.82;6.40;;;;;;;;;;5095869;28;20435;-69
2022/04/13 03:40:52;;;;;;;8.83;6.03;;;;;;;;;;5095616;28;20218;-71
2022/04/13 03:43:19;;;;;;;7.60;5.53;;;;;;;;;;5095876;28;20440;-70
2022/04/13 03:45:46;;;;;;;6.97;5.20;;;;;;;;;;5095687;28;20439;-69
2022/04/13 03:48:13;;;;;;;5.90;5.23;;;;;;;;;;5095868;28;20467;-70
2022/04/13 03:50:40;;;;;;;5.63;5.10;;;;;;;;;;5095337;28;20443;-71
2022/04/13 03:53:07;;;;;;;9.07;5.93;;;;;;;;;;5095698;28;20522;-70
2022/04/13 03:55:35;;;;;;;10.17;7.83;;;;;;;;;;5095464;28;20436;-70
2022/04/13 03:58:03;;;;;;;6.90;6.03;;;;;;;;;;5095095;28;20483;-69
2022/04/13 04:00:31;;;;;;;12.70;7.60;;;;;;;;;;5095316;28;20480;-68
2022/04/13 04:02:59;;;;;;;6.53;5.73;;;;;;;;;;5095473;28;20510;-68
2022/04/13 04:05:26;;;;;;;8.20;5.47;;;;;;;;;;5094979;28;20440;-69
2022/04/13 04:07:53;;;;;;;6.67;5.97;;;;;;;;;;5095602;28;20448;-69
2022/04/13 04:10:20;;;;;;;9.50;6.40;;;;;;;;;;5095383;28;20451;-68
2022/04/13 04:12:48;;;;;;;6.00;5.40;;;;;;;;;;5094922;28;20534;-68
2022/04/13 04:15:16;;;;;;;6.83;6.13;;;;;;;;;;5095122;28;20527;-68
2022/04/13 04:17:43;;;;;;;6.20;5.60;;;;;;;;;;5095123;28;20519;-69
2022/04/13 04:20:11;;;;;;;7.63;5.87;;;;;;;;;;5094922;28;20477;-69
2022/04/13 04:22:38;;;;;;;8.10;5.60;;;;;;;;;;5095088;28;20448;-69
2022/04/13 04:25:06;;;;;;;6.40;5.80;;;;;;;;;;5094618;28;20494;-68
2022/04/13 04:27:33;;;;;;;6.40;5.80;;;;;;;;;;5095339;28;20439;-69
2022/04/13 04:30:00;;;;;;;10.17;6.03;;;;;;;;;;5094429;28;20472;-70
2022/04/13 04:32:29;;;;;;;6.67;6.07;;;;;;;;;;5095140;28;20440;-69
2022/04/13 04:34:56;;;;;;;8.40;6.30;;;;;;;;;;5093663;28;20518;-69
2022/04/13 04:37:23;;;;;;;6.53;5.83;;;;;;;;;;5094796;28;20451;-69
2022/04/13 04:39:51;;;;;;;7.83;5.80;;;;;;;;;;5094171;28;20482;-68
2022/04/13 04:42:18;;;;;;;8.37;6.63;;;;;;;;;;5094616;28;20479;-69
2022/04/13 04:44:46;;;;;;;6.10;5.60;;;;;;;;;;5094610;28;20443;-69
2022/04/13 04:47:13;;;;;;;8.57;7.13;;;;;;;;;;5094500;28;20464;-69
2022/04/13 04:49:43;;;;;;;7.97;7.03;;;;;;;;;;5094190;28;20534;-69
2022/04/13 04:52:10;;;;;;;7.00;6.30;;;;;;;;;;5094334;28;20806;-69
2022/04/13 04:54:37;;;;;;;7.23;6.53;;;;;;;;;;5094046;28;20516;-70
2022/04/13 04:57:05;;;;;;;7.40;6.70;;;;;;;;;;5094216;28;20518;-69
2022/04/13 04:59:32;;;;;;;11.50;7.30;;;;;;;;;;5093832;28;20447;-70
2022/04/13 05:02:00;;;;;;;7.50;6.30;;;;;;;;;;5094236;28;20524;-69
2022/04/13 05:04:27;;;;;;;9.73;6.77;;;;;;;;;;5093888;28;20450;-69
2022/04/13 05:06:56;;;;;;;9.83;6.97;;;;;;;;;;5094126;28;20490;-69
2022/04/13 05:09:24;;;;;;;7.93;6.60;;;;;;;;;;5093850;28;20471;-69
2022/04/13 05:11:51;;;;;;;9.60;6.50;;;;;;;;;;5094278;28;20770;-69
2022/04/13 05:14:20;;;;;;;12.00;6.50;;;;;;;;;;5093854;28;20531;-70
2022/04/13 05:16:48;;;;;;;12.43;6.70;;;;;;;;;;5093976;28;20452;-72
2022/04/13 05:19:16;;;;;;;7.60;6.20;;;;;;;;;;5094041;28;20538;-68
2022/04/13 05:21:43;;;;;;;14.10;6.77;;;;;;;;;;5093865;28;20478;-68
2022/04/13 05:24:12;;;;;;;10.23;6.30;;;;;;;;;;5094608;28;20467;-68
2022/04/13 05:26:39;;;;;;;13.13;6.07;;;;;;;;;;5093675;28;20945;-68
2022/04/13 05:29:07;;;;;;;8.67;7.83;;;;;;;;;;5094121;28;20454;-68
2022/04/13 05:31:34;;;;;;;7.43;6.53;;;;;;;;;;5094199;28;20447;-68
2022/04/13 05:34:01;;;;;;;7.77;6.97;;;;;;;;;;5093647;28;20962;-68
2022/04/13 05:36:28;;;;;;;9.07;6.90;;;;;;;;;;5093639;28;20444;-69
2022/04/13 05:38:55;;;;;;;8.27;7.47;;;;;;;;;;5093921;28;20436;-67
2022/04/13 05:41:24;;;;;;;7.60;6.80;;;;;;;;;;5093472;28;20474;-67
2022/04/13 05:43:51;;;;;;;9.20;7.13;;;;;;;;;;5093647;28;20496;-68
2022/04/13 05:46:18;;;;;;;12.43;6.50;;;;;;;;;;5093883;28;20554;-68
2022/04/13 05:48:47;;;;;;;8.27;7.27;;;;;;;;;;5093939;28;20501;-67
2022/04/13 05:51:14;;;;;;;7.90;7.20;;;;;;;;;;5093184;28;20512;-68
2022/04/13 05:53:41;;;;;;;9.23;7.23;;;;;;;;;;5093267;28;20448;-68
2022/04/13 05:56:08;;;;;;;11.83;8.70;;;;;;;;;;5093453;28;20519;-68
2022/04/13 05:58:37;;;;;;;10.03;8.40;;;;;;;;;;5093185;28;20975;-68
2022/04/13 06:01:04;;;;;;;15.10;8.90;;;;;;;;;;5092971;28;20566;-68
2022/04/13 06:03:31;;;;;;;10.53;8.30;;;;;;;;;;5093462;28;20522;-68
2022/04/13 06:05:59;;;;;;;12.60;7.70;;;;;;;;;;5093389;28;20449;-68
2022/04/13 06:08:26;;;;;;;8.57;7.30;;;;;;;;;;5093165;28;20530;-69
2022/04/13 06:10:53;;;;;;;7.70;7.00;;;;;;;;;;5093523;28;20481;-68
2022/04/13 06:13:20;;;;;;;8.67;7.07;;;;;;;;;;5093097;28;20530;-69
2022/04/13 06:15:49;;;;;;;10.90;7.37;;;;;;;;;;5093492;28;20535;-69
2022/04/13 06:18:16;;;;;;;10.77;8.27;;;;;;;;;;5092933;28;20440;-69
2022/04/13 06:20:44;;;;;;;13.03;8.23;;;;;;;;;;5093480;28;20559;-68
2022/04/13 06:23:11;;;;;;;12.90;8.43;;;;;;;;;;5093378;28;20564;-68
2022/04/13 06:25:39;;;;;;;11.10;7.53;;;;;;;;;;5093179;28;20996;-69
2022/04/13 06:28:06;;;;;;;11.90;7.07;;;;;;;;;;5093189;28;20797;-68
2022/04/13 06:30:33;;;;;;;9.03;7.80;;;;;;;;;;5092973;28;20504;-69
2022/04/13 06:33:02;;;;;;;10.43;7.60;;;;;;;;;;5092841;28;20914;-68
2022/04/13 06:35:29;;;;;;;9.70;7.37;;;;;;;;;;5093244;28;20491;-68
2022/04/13 06:37:56;;;;;;;8.40;7.10;;;;;;;;;;5093308;28;20462;-68
2022/04/13 06:40:23;;;;;;;10.30;8.00;;;;;;;;;;5093126;28;20476;-68
2022/04/13 06:42:50;;;;;;;10.70;6.97;;;;;;;;;;5093124;28;20444;-68
2022/04/13 06:45:18;;;;;;;9.40;7.40;;;;;;;;;;5093059;28;20987;-68
2022/04/13 06:47:47;;;;;;;11.40;7.37;;;;;;;;;;5092984;28;20889;-68
2022/04/13 06:50:16;;;;;;;12.17;7.40;;;;;;;;;;5093133;28;20444;-68
2022/04/13 06:52:44;;;;;;;10.83;7.57;;;;;;;;;;5093110;28;20438;-69
2022/04/13 06:55:11;;;;;;;10.37;8.17;;;;;;;;;;5092733;28;20510;-68
2022/04/13 06:57:39;;;;;;;15.47;7.77;;;;;;;;;;5094427;28;20539;-67
2022/04/13 07:00:07;;;;;;;10.20;7.63;;;;;;;;;;5097030;28;20450;-68
2022/04/13 07:02:35;;;;;;;9.63;6.53;;;;;;;;;;5096553;28;20446;-69
2022/04/13 07:05:03;;;;;;;11.90;7.50;;;;;;;;;;5096507;28;20436;-68
2022/04/13 07:07:32;;;;;;;9.33;7.00;;;;;;;;;;5096497;28;20446;-69
2022/04/13 07:09:59;;;;;;;8.23;6.77;;;;;;;;;;5096266;28;20988;-68
2022/04/13 07:12:26;;;;;;;10.23;7.40;;;;;;;;;;5096324;28;20953;-68
2022/04/13 07:14:54;;;;;;;11.33;7.40;;;;;;;;;;5096552;28;20440;-69
2022/04/13 07:17:21;;;;;;;16.90;7.40;;;;;;;;;;5096367;28;20536;-69
2022/04/13 07:19:48;;;;;;;10.30;7.90;;;;;;;;;;5096003;28;20501;-71
2022/04/13 07:22:16;;;;;;;13.40;8.07;;;;;;;;;;5095977;28;20944;-68
2022/04/13 07:24:44;;;;;;;9.63;7.70;;;;;;;;;;5096289;28;20444;-69
2022/04/13 07:27:12;;;;;;;11.77;7.90;;;;;;;;;;5095917;28;20452;-70
2022/04/13 07:29:40;;;;;;;15.13;9.50;;;;;;;;;;5095723;28;20538;-69
2022/04/13 07:32:08;;;;;;;15.60;11.10;;;;;;;;;;5096003;28;20460;-70
2022/04/13 07:34:36;;;;;;;12.00;10.00;;;;;;;;;;5096027;28;20457;-69
2022/04/13 07:37:03;;;;;;;18.87;9.63;;;;;;;;;;5096002;28;20446;-69
2022/04/13 07:39:31;;;;;;;16.63;9.90;;;;;;;;;;5095456;28;20467;-68
2022/04/13 07:41:59;;;;;;;15.67;9.67;;;;;;;;;;5095747;28;20476;-68
2022/04/13 07:44:26;;;;;;;16.50;9.87;;;;;;;;;;5095780;28;20450;-69
2022/04/13 07:46:54;;;;;;;19.87;10.10;;;;;;;;;;5095584;28;20472;-68
2022/04/13 07:49:21;;;;;;;16.53;10.50;;;;;;;;;;5095777;28;20481;-70
2022/04/13 07:51:49;;;;;;;12.50;9.30;;;;;;;;;;5095816;28;20524;-69
2022/04/13 07:54:16;;;;;;;16.53;9.63;;;;;;;;;;5095534;28;20437;-68
2022/04/13 07:56:43;;;;;;;15.17;9.67;;;;;;;;;;5095841;28;20442;-69
2022/04/13 07:59:12;;;;;;;15.50;9.63;;;;;;;;;;5095035;28;20445;-69
2022/04/13 08:01:39;;;;;;;14.87;9.40;;;;;;;;;;5095122;28;20478;-69
2022/04/13 08:04:06;;;;;;;16.93;9.40;;;;;;;;;;5095051;28;20440;-68
2022/04/13 08:06:33;;;;;;;14.70;9.97;;;;;;;;;;5095471;28;20442;-68
2022/04/13 08:09:01;;;;;;;17.87;9.23;;;;;;;;;;5095162;28;20519;-68
2022/04/13 08:11:28;;;;;;;15.73;8.67;;;;;;;;;;5095591;28;20968;-70
2022/04/13 08:13:55;;;;;;;15.87;9.30;;;;;;;;;;5095047;28;20870;-69
2022/04/13 08:16:24;;;;;;;19.57;9.83;;;;;;;;;;5095559;28;20435;-69
2022/04/13 08:18:51;;;;;;;14.40;9.33;;;;;;;;;;5095152;28;20441;-69
2022/04/13 08:21:18;;;;;;;16.70;9.77;;;;;;;;;;5094997;28;20468;-69
2022/04/13 08:23:45;;;;;;;15.57;9.80;;;;;;;;;;5094740;28;20434;-69
2022/04/13 08:26:12;;;;;;;16.17;9.73;;;;;;;;;;5094655;28;20545;-69
2022/04/13 08:28:40;;;;;;;18.47;9.20;;;;;;;;;;5095461;28;20552;-69
2022/04/13 08:31:09;;;;;;;17.77;9.80;;;;;;;;;;5094627;28;20455;-68
2022/04/13 08:33:38;;;;;;;15.53;8.90;;;;;;;;;;5094498;28;20444;-69
2022/04/13 08:36:05;;;;;;;12.03;9.90;;;;;;;;;;5094864;28;20487;-68
2022/04/13 08:38:32;;;;;;;13.37;8.60;;;;;;;;;;5094687;28;20450;-68
2022/04/13 08:41:00;;;;;;;16.30;10.30;;;;;;;;;;5094357;28;20975;-69
2022/04/13 08:43:31;;;;;;;14.07;9.57;;;;;;;;;;5094247;28;20540;-68
2022/04/13 08:45:59;;;;;;;18.13;11.30;;;;;;;;;;5094897;28;20474;-68
2022/04/13 08:48:27;;;;;;;11.70;9.67;;;;;;;;;;5094932;28;20424;-68
2022/04/13 08:50:59;;;;;;;15.43;9.50;;;;;;;;;;5094766;28;20523;-68
2022/04/13 08:53:29;;;;;;;13.00;8.43;;;;;;;;;;5094474;28;20428;-68
2022/04/13 08:55:57;;;;;;;17.20;8.90;;;;;;;;;;5094747;28;20436;-69
2022/04/13 08:58:26;;;;;;;12.67;9.03;;;;;;;;;;5094775;28;20447;-68
2022/04/13 09:00:56;;;;;;;18.53;9.63;;;;;;;;;;5094758;28;20831;-69
2022/04/13 09:03:30;;;;;;;17.90;9.67;;;;;;;;;;5093933;28;20531;-68
2022/04/13 09:05:59;;;;;;;21.60;9.43;;;;;;;;;;5094407;28;20514;-69
2022/04/13 09:08:29;;;;;;;16.30;9.60;;;;;;;;;;5094103;28;20501;-68
2022/04/13 09:10:56;;;;;;;13.00;9.17;;;;;;;;;;5094558;28;20870;-69
2022/04/13 09:13:25;;;;;;;17.70;10.60;;;;;;;;;;5093910;28;20433;-68
2022/04/13 09:15:53;;;;;;;19.40;9.87;;;;;;;;;;5094194;28;20530;-68
2022/04/13 09:18:21;;;;;;;13.27;9.30;;;;;;;;;;5094136;28;20436;-68
2022/04/13 09:20:48;;;;;;;16.13;10.50;;;;;;;;;;5093082;28;20448;-68
2022/04/13 09:23:17;;;;;;;17.33;10.23;;;;;;;;;;5094015;28;20441;-68
2022/04/13 09:25:44;;;;;;;14.33;9.83;;;;;;;;;;5093959;28;20439;-68
2022/04/13 09:28:12;;;;;;;15.60;10.07;;;;;;;;;;5094049;28;20442;-68
2022/04/13 09:30:39;;;;;;;16.10;10.03;;;;;;;;;;5093815;28;20436;-68
2022/04/13 09:33:07;;;;;;;13.83;9.40;;;;;;;;;;5093842;28;20446;-68
2022/04/13 09:35:35;;;;;;;20.07;9.80;;;;;;;;;;5093820;28;20443;-68
2022/04/13 09:38:03;;;;;;;14.30;9.50;;;;;;;;;;5093654;28;20480;-68
2022/04/13 09:40:40;;;;;;;13.60;9.70;;;;;;;;;;5093872;28;20437;-69
2022/04/13 09:43:08;;;;;;;9.67;8.77;;;;;;;;;;5094004;28;20464;-69
2022/04/13 09:45:36;;;;;;;12.87;9.03;;;;;;;;;;5093664;28;20531;-69
2022/04/13 09:48:06;;;;;;;13.43;8.60;;;;;;;;;;5094176;28;20476;-69
2022/04/13 09:50:34;;;;;;;13.37;9.90;;;;;;;;;;5093329;28;20425;-69
2022/04/13 09:53:03;;;;;;;18.53;9.10;;;;;;;;;;5093634;28;20455;-69
2022/04/13 09:55:31;;;;;;;13.60;8.73;;;;;;;;;;5093487;28;20444;-69
2022/04/13 09:58:06;;;;;;;14.63;9.63;;;;;;;;;;5093347;28;20453;-69
2022/04/13 10:00:34;;;;;;;14.10;9.40;;;;;;;;;;5093488;28;20443;-69
2022/04/13 10:03:08;;;;;;;22.00;10.13;;;;;;;;;;5093562;28;20487;-69
2022/04/13 10:05:36;;;;;;;13.03;9.23;;;;;;;;;;5093515;28;20444;-69
2022/04/13 10:08:04;;;;;;;15.17;8.90;;;;;;;;;;5093459;28;20436;-69
2022/04/13 10:10:31;;;;;;;13.87;8.43;;;;;;;;;;5093034;28;20447;-69
2022/04/13 10:12:58;;;;;;;12.70;8.60;;;;;;;;;;5093676;28;20470;-68
2022/04/13 10:15:27;;;;;;;11.70;8.03;;;;;;;;;;5093003;28;20447;-69
2022/04/13 10:17:59;;;;;;;16.10;8.80;;;;;;;;;;5093536;28;20494;-69
2022/04/13 10:20:30;;;;;;;20.40;8.47;;;;;;;;;;5092981;28;20453;-69
2022/04/13 10:22:58;;;;;;;12.60;8.53;;;;;;;;;;5093395;28;20469;-69
2022/04/13 10:25:27;;;;;;;20.10;8.33;;;;;;;;;;5092935;28;20795;-69
2022/04/13 10:27:55;;;;;;;11.10;7.90;;;;;;;;;;5094019;28;20914;-70
2022/04/13 10:30:27;;;;;;;12.50;8.20;;;;;;;;;;5092809;28;20429;-68
2022/04/13 10:32:59;;;;;;;11.50;7.43;;;;;;;;;;5094759;28;20484;-68
2022/04/13 10:35:27;;;;;;;15.83;8.77;;;;;;;;;;5096959;28;20446;-69
2022/04/13 10:37:55;;;;;;;16.80;8.60;;;;;;;;;;5096718;28;20439;-68
2022/04/13 10:40:23;;;;;;;11.23;7.27;;;;;;;;;;5096593;28;20438;-68
2022/04/13 10:42:52;;;;;;;10.70;7.53;;;;;;;;;;5096798;28;20484;-69
2022/04/13 10:45:19;;;;;;;11.47;7.07;;;;;;;;;;5096445;28;20534;-68
2022/04/13 10:47:55;;;;;;;14.03;6.90;;;;;;;;;;5097192;28;20488;-68
2022/04/13 10:50:30;;;;;;;11.83;7.77;;;;;;;;;;5096714;28;20425;-68
2022/04/13 10:52:58;;;;;;;10.10;6.90;;;;;;;;;;5096810;28;20451;-69
2022/04/13 10:55:27;;;;;;;15.50;7.27;;;;;;;;;;5097182;28;20478;-68
2022/04/13 10:57:54;;;;;;;11.80;7.67;;;;;;;;;;5096634;28;20537;-69
2022/04/13 11:00:23;;;;;;;10.57;7.03;;;;;;;;;;5096512;28;20927;-68
2022/04/13 11:02:54;;;;;;;8.90;7.33;;;;;;;;;;5096769;28;20565;-68
2022/04/13 11:05:22;;;;;;;12.60;6.70;;;;;;;;;;5096757;28;20452;-68
2022/04/13 11:07:52;;;;;;;12.63;7.97;;;;;;;;;;5096663;28;20446;-68
2022/04/13 11:10:20;;;;;;;9.70;7.20;;;;;;;;;;5096547;28;20508;-68
2022/04/13 11:12:48;;;;;;;8.00;6.47;;;;;;;;;;5096474;28;20451;-69
2022/04/13 11:15:15;;;;;;;10.43;7.03;;;;;;;;;;5095941;28;20544;-68
2022/04/13 11:17:43;;;;;;;9.17;5.90;;;;;;;;;;5096523;28;20447;-69
2022/04/13 11:20:20;;;;;;;12.10;6.17;;;;;;;;;;5095786;28;20485;-68
2022/04/13 11:22:47;;;;;;;12.37;8.00;;;;;;;;;;5095729;28;20553;-68
2022/04/13 11:25:29;;;;;;;14.20;6.93;;;;;;;;;;5096175;28;20447;-68
2022/04/13 11:27:58;;;;;;;8.23;6.07;;;;;;;;;;5095577;28;20965;-68
2022/04/13 11:30:25;;;;;;;8.93;5.83;;;;;;;;;;5095870;28;20435;-68
2022/04/13 11:32:53;;;;;;;8.30;5.23;;;;;;;;;;5096040;28;20807;-68
2022/04/13 11:35:28;;;;;;;12.17;6.30;;;;;;;;;;5095911;28;20427;-67
2022/04/13 11:38:06;;;;;;;9.50;5.63;;;;;;;;;;5095966;28;20438;-70
2022/04/13 11:40:33;;;;;;;6.60;5.23;;;;;;;;;;5095498;28;20503;-68
2022/04/13 11:43:00;;;;;;;6.60;5.10;;;;;;;;;;5094919;28;20510;-69
2022/04/13 11:45:28;;;;;;;6.73;5.00;;;;;;;;;;5095275;28;20453;-68
2022/04/13 11:47:56;;;;;;;10.00;5.47;;;;;;;;;;5095462;28;20826;-68
2022/04/13 11:50:24;;;;;;;8.10;5.27;;;;;;;;;;5095207;28;20446;-68
2022/04/13 11:52:54;;;;;;;5.73;5.00;;;;;;;;;;5095126;28;20497;-68
2022/04/13 11:55:22;;;;;;;9.53;6.20;;;;;;;;;;5095131;28;20447;-68
2022/04/13 11:57:53;;;;;;;9.10;6.50;;;;;;;;;;5094683;28;21015;-68
2022/04/13 12:00:35;;;;;;;11.23;6.30;;;;;;;;;;5095422;28;20538;-68
2022/04/13 12:03:02;;;;;;;7.60;6.80;;;;;;;;;;5095233;28;20470;-68
2022/04/13 12:05:30;;;;;;;7.50;5.27;;;;;;;;;;5095091;28;20873;-68
2022/04/13 12:08:00;;;;;;;8.87;5.57;;;;;;;;;;5095149;28;20446;-68
2022/04/13 12:10:27;;;;;;;7.10;5.50;;;;;;;;;;5094933;28;20939;-68
2022/04/13 12:12:55;;;;;;;7.10;5.23;;;;;;;;;;5094879;28;20446;-69
2022/04/13 12:15:23;;;;;;;7.20;4.37;;;;;;;;;;5094880;28;20451;-68
2022/04/13 12:17:51;;;;;;;5.03;4.13;;;;;;;;;;5095023;28;20801;-68
2022/04/13 12:20:31;;;;;;;5.23;3.63;;;;;;;;;;5094952;28;20436;-68
2022/04/13 12:23:00;;;;;;;7.03;3.50;;;;;;;;;;5094604;28;20485;-68
2022/04/13 12:25:27;;;;;;;7.77;4.47;;;;;;;;;;5095126;28;20443;-68
2022/04/13 12:28:03;;;;;;;4.90;3.60;;;;;;;;;;5095074;28;20916;-68
2022/04/13 12:30:31;;;;;;;6.60;4.20;;;;;;;;;;5094716;28;20449;-69
2022/04/13 12:32:58;;;;;;;7.67;5.00;;;;;;;;;;5094463;28;20542;-69
2022/04/13 12:35:25;;;;;;;4.67;4.23;;;;;;;;;;5094784;28;20549;-68
2022/04/13 12:37:53;;;;;;;7.53;5.20;;;;;;;;;;5094260;28;20446;-68
2022/04/13 12:40:23;;;;;;;6.93;4.03;;;;;;;;;;5094927;28;20459;-68
2022/04/13 12:42:51;;;;;;;10.20;4.50;;;;;;;;;;5094252;28;20475;-68
2022/04/13 12:45:18;;;;;;;10.83;4.70;;;;;;;;;;5094213;28;20492;-68
2022/04/13 12:47:45;;;;;;;7.60;4.70;;;;;;;;;;5094701;28;20475;-68
2022/04/13 12:50:13;;;;;;;6.83;3.70;;;;;;;;;;5094365;28;20444;-68
2022/04/13 12:52:41;;;;;;;7.07;3.50;;;;;;;;;;5094131;28;20470;-68
2022/04/13 12:55:09;;;;;;;6.80;3.77;;;;;;;;;;5093387;28;20443;-68
2022/04/13 12:57:38;;;;;;;4.50;3.00;;;;;;;;;;5094325;28;20448;-68
2022/04/13 13:00:06;;;;;;;4.37;3.17;;;;;;;;;;5094023;28;20794;-68
2022/04/13 13:02:33;;;;;;;5.33;3.40;;;;;;;;;;5093685;28;20471;-68
2022/04/13 13:05:05;;;;;;;8.43;3.23;;;;;;;;;;5093907;28;20431;-68
2022/04/13 13:07:33;;;;;;;10.20;5.10;;;;;;;;;;5094316;28;20442;-68
2022/04/13 13:10:00;;;;;;;7.30;4.07;;;;;;;;;;5093629;28;20448;-68
2022/04/13 13:12:28;;;;;;;5.10;3.70;;;;;;;;;;5093874;28;20444;-68
2022/04/13 13:14:57;;;;;;;4.13;3.53;;;;;;;;;;5093616;28;20440;-68
2022/04/13 13:17:25;;;;;;;5.90;4.20;;;;;;;;;;5092460;28;20519;-69
2022/04/13 13:19:54;;;;;;;5.60;2.77;;;;;;;;;;5092850;28;20447;-68
2022/04/13 13:22:23;;;;;;;4.93;2.60;;;;;;;;;;5092135;28;20472;-69
2022/04/13 13:24:52;;;;;;;6.83;3.43;;;;;;;;;;5092559;28;20497;-68
2022/04/13 13:27:24;;;;;;;9.90;3.47;;;;;;;;;;5092875;28;20463;-68
2022/04/13 13:29:52;;;;;;;8.23;3.57;;;;;;;;;;5092235;28;20929;-69
2022/04/13 13:32:21;;;;;;;5.50;4.50;;;;;;;;;;5093030;28;20461;-69
2022/04/13 13:34:54;;;;;;;9.60;5.00;;;;;;;;;;5092642;28;20800;-69
2022/04/13 13:37:34;;;;;;;15.17;4.60;;;;;;;;;;5092833;28;20439;-69
2022/04/13 13:40:02;;;;;;;10.70;5.10;;;;;;;;;;5092994;28;20777;-69
2022/04/13 13:42:29;;;;;;;7.40;4.60;;;;;;;;;;5092539;28;20506;-69
2022/04/13 13:44:56;;;;;;;8.57;5.40;;;;;;;;;;5092685;28;20450;-69
2022/04/13 13:47:27;;;;;;;9.20;5.50;;;;;;;;;;5092461;28;20995;-69
2022/04/13 13:49:54;;;;;;;11.07;5.73;;;;;;;;;;5091803;28;21029;-69
2022/04/13 13:52:22;;;;;;;6.23;4.80;;;;;;;;;;5092428;28;20805;-70
2022/04/13 13:54:49;;;;;;;7.70;5.47;;;;;;;;;;5092094;28;20440;-70
2022/04/13 13:57:16;;;;;;;7.03;4.93;;;;;;;;;;5092437;28;20453;-69
2022/04/13 13:59:43;;;;;;;5.90;4.80;;;;;;;;;;5092441;28;20451;-70
2022/04/13 14:02:11;;;;;;;7.03;5.67;;;;;;;;;;5092824;28;20444;-70
2022/04/13 14:04:39;;;;;;;8.83;5.63;;;;;;;;;;5093103;28;20488;-68
2022/04/13 14:07:07;;;;;;;8.10;5.03;;;;;;;;;;5095498;28;20975;-72
2022/04/13 14:09:34;;;;;;;7.00;4.67;;;;;;;;;;5096995;28;20921;-76
2022/04/13 14:12:02;;;;;;;9.50;5.40;;;;;;;;;;5097100;28;20530;-78
2022/04/13 14:14:29;;;;;;;14.10;5.80;;;;;;;;;;5097063;28;20450;-77
2022/04/13 14:16:57;;;;;;;5.23;4.60;;;;;;;;;;5096435;28;20436;-77
2022/04/13 14:19:24;;;;;;;7.43;4.90;;;;;;;;;;5096722;28;20443;-79
2022/04/13 14:21:52;;;;;;;7.40;5.83;;;;;;;;;;5096216;28;20451;-81
2022/04/13 14:24:20;;;;;;;6.17;5.03;;;;;;;;;;5097436;28;20520;-82
2022/04/13 14:26:47;;;;;;;6.23;5.43;;;;;;;;;;5097599;28;20442;-83
2022/04/13 14:29:14;;;;;;;5.63;4.97;;;;;;;;;;5096905;28;20999;-84
2022/04/13 14:31:41;;;;;;;7.13;5.50;;;;;;;;;;5096591;28;20442;-83
2022/04/13 14:34:09;;;;;;;11.27;6.20;;;;;;;;;;5096102;28;20948;-83
2022/04/13 14:36:37;;;;;;;8.60;5.50;;;;;;;;;;5096576;28;20470;-82
2022/04/13 14:39:06;;;;;;;7.80;6.23;;;;;;;;;;5096103;28;20450;-82
2022/04/13 14:41:33;;;;;;;9.80;5.43;;;;;;;;;;5096189;28;20507;-85
2022/04/13 14:44:00;;;;;;;8.27;6.47;;;;;;;;;;5096486;28;20567;-83